^^
Datos históricos de la estación: Murcia-Puente Tocinos
Diario Informe para Julio 18, 2021 Unidades:  Métrico    Ingés   Ambas
Diario Semanal Mensual Anual
  Máxima: Mínima: Promedio:
Temperatura: 17.2 °C 6.8 °C 11.5 °C
Punto de rocio: 7 °C -4.1 °C 1.1 °C
Humedad: 83% 32% 51%
Velocidad viento: 12.2km/h 0km/h 5.7km/h
Racha viento: 20.9km/h - -
Viento- - SSE
Presión: 1028.0 hPa 1024.6 hPa -
Precipitación: 0.0 mm    
 
 
Tabla de datos para Julio 18, 2021
Hora Temperatura Punto de rocio Presión Viento Velocidad viento Racha viento Humedad Intensidad lluvia(por hora) Nubes
00:04 12.4 °C -3.8 °C 1025.0 hPa Sur 9.5 km/h 16.1 km/h 32% 0.0 mm
00:09 12.3 °C -3.8 °C 1025.0 hPa Sur 8.8 km/h 14.8 km/h 32.3% 0.0 mm
00:14 12.1 °C -3.7 °C 1025.0 hPa SE 8.7 km/h 14.5 km/h 33% 0.0 mm
00:19 11.9 °C -3.7 °C 1025.0 hPa Sur 7.1 km/h 15.6 km/h 33.5% 0.0 mm
00:24 11.8 °C -3.6 °C 1025.0 hPa SSO 6.9 km/h 20.4 km/h 34% 0.0 mm
00:29 11.8 °C -3.6 °C 1025.0 hPa Sur 10.1 km/h 20.9 km/h 34% 0.0 mm
00:34 11.8 °C -3.6 °C 1025.0 hPa Sur 10.3 km/h 18 km/h 34% 0.0 mm
00:39 11.8 °C -3.5 °C 1025.1 hPa SSE 11 km/h 20.4 km/h 34% 0.0 mm
00:44 11.9 °C -3.7 °C 1025.1 hPa SSE 11.1 km/h 20.9 km/h 33.5% 0.0 mm
00:49 11.9 °C -3.8 °C 1025.1 hPa Sur 12.1 km/h 18.5 km/h 33% 0.0 mm
00:54 12.1 °C -3.7 °C 1025.1 hPa Sur 12.2 km/h 16.7 km/h 33% 0.0 mm
00:59 11.9 °C -3.8 °C 1025.1 hPa Sur 11.3 km/h 17.7 km/h 33% 0.0 mm
01:04 11.9 °C -3.9 °C 1025.1 hPa Sur 11.1 km/h 18.5 km/h 33% 0.0 mm
01:09 11.9 °C -3.9 °C 1025.1 hPa Sur 11.1 km/h 19.3 km/h 33.1% 0.0 mm
01:14 11.8 °C -3.6 °C 1025.1 hPa Sur 11.1 km/h 16.7 km/h 33.8% 0.0 mm
01:19 11.8 °C -3.9 °C 1025.1 hPa SSO 10.4 km/h 16.1 km/h 33.2% 0.0 mm
01:24 11.9 °C -3.9 °C 1025.1 hPa SSO 10.3 km/h 14.5 km/h 33% 0.0 mm
01:29 12.1 °C -3.9 °C 1025.1 hPa SSO 8.9 km/h 12.9 km/h 32.7% 0.0 mm
01:34 12.1 °C -4.1 °C 1025.1 hPa SO 8.7 km/h 13 km/h 32% 0.0 mm
01:39 12.1 °C -3.9 °C 1025.1 hPa SO 6.8 km/h 12.9 km/h 32.5% 0.0 mm
01:44 11.8 °C -3.9 °C 1025.0 hPa SO 6.5 km/h 9.7 km/h 33% 0.0 mm
01:49 11.7 °C -3.7 °C 1025.0 hPa OSO 5.1 km/h 8 km/h 34% 0.0 mm
01:54 11.4 °C -3.7 °C 1025.0 hPa OSO 5 km/h 8 km/h 34.6% 0.0 mm
01:59 11.2 °C -3.7 °C 1025.0 hPa SO 4.7 km/h 9.3 km/h 35.1% 0.0 mm
02:04 10.9 °C -3.7 °C 1025.0 hPa SO 4.6 km/h 9.7 km/h 35.6% 0.0 mm
02:09 11 °C -3.9 °C 1025.0 hPa SO 6.3 km/h 13 km/h 35.1% 0.0 mm
02:14 11.2 °C -4.1 °C 1024.9 hPa SO 6.5 km/h 13 km/h 34.1% 0.0 mm
02:19 11.3 °C -4 °C 1024.9 hPa SO 7.5 km/h 12.9 km/h 34% 0.0 mm
02:24 11.3 °C -4 °C 1025.0 hPa OSO 7.6 km/h 8 km/h 34% 0.0 mm
02:29 11.2 °C -3.7 °C 1025.0 hPa NO 5 km/h 8 km/h 35.1% 0.0 mm
02:34 10.8 °C -3.7 °C 1025.0 hPa Oeste 4.7 km/h 8 km/h 36.1% 0.0 mm
02:39 10.5 °C -3.5 °C 1025.1 hPa OSO 3.9 km/h 8 km/h 37.1% 0.0 mm
02:44 10.2 °C -3.5 °C 1025.1 hPa SO 3.9 km/h 11.9 km/h 38% 0.0 mm
02:49 10.2 °C -3.5 °C 1025.1 hPa SO 6.2 km/h 11.3 km/h 38% 0.0 mm
02:54 10.2 °C -3.5 °C 1025.2 hPa SO 6.5 km/h 11.3 km/h 38% 0.0 mm
02:59 10.2 °C -3.6 °C 1025.2 hPa OSO 6.5 km/h 11.3 km/h 38% 0.0 mm
03:04 10 °C -3.4 °C 1025.2 hPa SSO 6.5 km/h 10.3 km/h 38.9% 0.0 mm
03:09 9.9 °C -3.6 °C 1025.2 hPa SSO 6.5 km/h 11.3 km/h 38.4% 0.0 mm
03:14 10.1 °C -3.6 °C 1025.2 hPa OSO 6.5 km/h 11.3 km/h 38% 0.0 mm
03:19 10.1 °C -3.5 °C 1025.2 hPa OSO 6.5 km/h 9.5 km/h 38.3% 0.0 mm
03:24 9.9 °C -3.4 °C 1025.3 hPa OSO 6.5 km/h 10.3 km/h 39% 0.0 mm
03:29 9.8 °C -3.4 °C 1025.3 hPa SO 4.8 km/h 14.8 km/h 39.2% 0.0 mm
03:34 9.7 °C -3.3 °C 1025.3 hPa SO 4.7 km/h 14.5 km/h 40% 0.0 mm
03:39 9.7 °C -3.3 °C 1025.3 hPa SO 8.3 km/h 14.5 km/h 40% 0.0 mm
03:44 9.6 °C -3.3 °C 1025.1 hPa SO 8.7 km/h 13 km/h 40% 0.0 mm
03:49 9.6 °C -3.3 °C 1025.1 hPa SSO 8.7 km/h 12.9 km/h 40% 0.0 mm
03:54 9.7 °C -3.3 °C 1025.2 hPa SO 8.7 km/h 11.9 km/h 40% 0.0 mm
03:59 9.7 °C -3.2 °C 1025.2 hPa SO 7.7 km/h 11.3 km/h 40% 0.0 mm
04:04 9.7 °C -3.3 °C 1025.2 hPa SO 7.6 km/h 8 km/h 40% 0.0 mm
04:09 9.7 °C -3.3 °C 1025.2 hPa SO 4.9 km/h 8.7 km/h 40% 0.0 mm
04:14 9.6 °C -3.3 °C 1025.1 hPa SO 4.7 km/h 14.8 km/h 40% 0.0 mm
04:19 9.6 °C -3.3 °C 1025.1 hPa SO 7.1 km/h 14.5 km/h 40.3% 0.0 mm
04:24 9.6 °C -3.1 °C 1025.1 hPa SO 7.6 km/h 11.3 km/h 41% 0.0 mm
04:29 9.5 °C -3.1 °C 1025.0 hPa SO 7.6 km/h 11.3 km/h 41% 0.0 mm
04:34 9.5 °C -3.1 °C 1025.0 hPa SSO 7.6 km/h 11.9 km/h 41% 0.0 mm
04:39 9.6 °C -3.1 °C 1025.0 hPa SSO 7 km/h 13 km/h 41% 0.0 mm
04:44 9.6 °C -3.2 °C 1024.9 hPa SO 6.9 km/h 9.3 km/h 40.6% 0.0 mm
04:49 9.6 °C -3.3 °C 1024.9 hPa OSO 6.5 km/h 13.7 km/h 40% 0.0 mm
04:54 9.7 °C -3.3 °C 1025.0 hPa OSO 6.5 km/h 14.5 km/h 40% 0.0 mm
04:59 9.7 °C -3.3 °C 1025.0 hPa SO 6.5 km/h 12.9 km/h 40% 0.0 mm
05:04 9.7 °C -3.3 °C 1025.0 hPa SO 6.5 km/h 13 km/h 40% 0.0 mm
05:09 9.7 °C -3.2 °C 1025.0 hPa SO 8.2 km/h 14.8 km/h 40.4% 0.0 mm
05:14 9.5 °C -3.1 °C 1024.9 hPa SO 8.4 km/h 14.5 km/h 41% 0.0 mm
05:19 9.3 °C -3.2 °C 1024.9 hPa SO 7.6 km/h 12.9 km/h 41% 0.0 mm
05:24 9.3 °C -3.1 °C 1024.9 hPa SO 7.6 km/h 11.3 km/h 41.9% 0.0 mm
05:29 9.2 °C -3.1 °C 1024.9 hPa OSO 7 km/h 9.5 km/h 42% 0.0 mm
05:34 9 °C -3.1 °C 1024.9 hPa OSO 6.9 km/h 9.7 km/h 42.5% 0.0 mm
05:39 8.8 °C -3.1 °C 1024.9 hPa SO 5.3 km/h 8 km/h 43% 0.0 mm
05:44 8.7 °C -3.1 °C 1024.9 hPa SO 5 km/h 9.5 km/h 43.5% 0.0 mm
05:49 8.6 °C -3 °C 1024.9 hPa OSO 4.7 km/h 9.7 km/h 44% 0.0 mm
05:54 8.6 °C -3 °C 1024.9 hPa SO 4.7 km/h 10 km/h 44% 0.0 mm
05:59 8.5 °C -3.1 °C 1024.9 hPa SO 6.3 km/h 9.7 km/h 44% 0.0 mm
06:04 8.4 °C -3.1 °C 1024.9 hPa SO 6.5 km/h 9.7 km/h 44.2% 0.0 mm
06:09 8.4 °C -2.9 °C 1025.1 hPa SSO 5.2 km/h 9.7 km/h 45% 0.0 mm
06:14 8.4 °C -2.9 °C 1025.1 hPa Sur 5 km/h 8 km/h 45% 0.0 mm
06:19 8.4 °C -2.9 °C 1025.1 hPa Sur 4 km/h 5.8 km/h 45% 0.0 mm
06:24 8.5 °C -2.9 °C 1025.3 hPa SO 3.9 km/h 7.6 km/h 44.7% 0.0 mm
06:29 8.6 °C -3 °C 1025.3 hPa OSO 4.6 km/h 8.4 km/h 44% 0.0 mm
06:34 8.6 °C -3 °C 1025.3 hPa OSO 4.7 km/h 8 km/h 44% 0.0 mm
06:39 8.6 °C -2.7 °C 1025.5 hPa Sur 3.3 km/h 7.4 km/h 45% 0.0 mm
06:44 8.3 °C -2.4 °C 1025.5 hPa ESE 3.2 km/h 8 km/h 46.7% 0.0 mm
06:49 8.1 °C -2.5 °C 1025.5 hPa ESE 3.8 km/h 6.4 km/h 47% 0.0 mm
06:54 7.9 °C -2.5 °C 1025.7 hPa ESE 3.9 km/h 3.9 km/h 47.8% 0.0 mm
06:59 7.8 °C -2.5 °C 1025.7 hPa SSO 2.5 km/h 5.6 km/h 48% 0.0 mm
07:04 7.8 °C -2.6 °C 1025.7 hPa ONO 2.2 km/h 4.8 km/h 48% 0.0 mm
07:09 7.8 °C -2.4 °C 1025.9 hPa Sur 2.2 km/h 7.4 km/h 48.4% 0.0 mm
07:14 7.8 °C -2.3 °C 1025.9 hPa SO 2.2 km/h 9.3 km/h 49% 0.0 mm
07:19 7.8 °C -2.3 °C 1025.9 hPa SSO 3.6 km/h 9.7 km/h 49% 0.0 mm
07:24 7.8 °C -2.3 °C 1026.0 hPa SSE 3.9 km/h 9.7 km/h 49% 0.0 mm
07:29 7.7 °C -2.3 °C 1026.0 hPa SSO 4.8 km/h 9.7 km/h 49% 0.0 mm
07:34 7.7 °C -2.3 °C 1026.0 hPa SSO 5 km/h 11.1 km/h 49% 0.0 mm
07:39 7.7 °C -2.2 °C 1026.2 hPa Sur 6.3 km/h 11.3 km/h 49.6% 0.0 mm
07:44 7.6 °C -2.2 °C 1026.2 hPa Sur 6.5 km/h 9.7 km/h 50% 0.0 mm
07:49 7.5 °C -2.3 °C 1026.2 hPa SSE 5.9 km/h 8 km/h 50% 0.0 mm
07:54 7.5 °C -2.3 °C 1026.3 hPa SE 5.8 km/h 8 km/h 50% 0.0 mm
07:59 7.5 °C -2 °C 1026.3 hPa SE 3.6 km/h 4.7 km/h 50.9% 0.0 mm
08:04 7.4 °C -1.9 °C 1026.3 hPa SE 3.2 km/h 5.6 km/h 51.8% 0.0 mm
08:09 7.3 °C -1.8 °C 1026.7 hPa ESE 2.9 km/h 5.8 km/h 52.5% 0.0 mm
08:14 7.1 °C -1.8 °C 1026.7 hPa ESE 2.9 km/h 6.4 km/h 53.4% 0.0 mm
08:19 6.8 °C -1.7 °C 1026.7 hPa SE 3.7 km/h 7.4 km/h 54.5% 0.0 mm
08:24 6.8 °C -1.6 °C 1026.7 hPa SSO 3.9 km/h 8 km/h 55% 0.0 mm
08:29 7 °C -1.6 °C 1026.7 hPa SSO 4.8 km/h 9.3 km/h 54.1% 0.0 mm
08:34 7.1 °C -1.6 °C 1026.7 hPa SO 5 km/h 9.7 km/h 54% 0.0 mm
08:39 7.2 °C -1.5 °C 1026.9 hPa SO 5 km/h 8.4 km/h 54% 0.0 mm
08:44 7.2 °C -1.6 °C 1026.9 hPa SO 5 km/h 8 km/h 53.7% 0.0 mm
08:49 7.2 °C -1.7 °C 1026.9 hPa SO 5 km/h 8 km/h 53.3% 0.0 mm
08:54 7.3 °C -1.5 °C 1026.9 hPa SSE 5 km/h 8.4 km/h 53.6% 0.0 mm
08:59 7.2 °C -1.3 °C 1026.9 hPa SSE 5 km/h 8 km/h 55% 0.0 mm
09:04 7.1 °C -1.2 °C 1026.9 hPa SE 5 km/h 8 km/h 55.7% 0.0 mm
09:09 6.9 °C -1.3 °C 1027.0 hPa SSO 4.7 km/h 11.1 km/h 56% 0.0 mm
09:14 6.9 °C -1.5 °C 1027.0 hPa SSO 4.7 km/h 11.9 km/h 55.2% 0.0 mm
09:19 7.1 °C -1.4 °C 1027.0 hPa Sur 6.6 km/h 11.3 km/h 54.7% 0.0 mm
09:24 7.3 °C -1.2 °C 1027.1 hPa SSE 6.9 km/h 8 km/h 55% 0.0 mm
09:29 7.3 °C -1.2 °C 1027.1 hPa SSE 5 km/h 8.4 km/h 55% 0.0 mm
09:34 7.2 °C -1 °C 1027.1 hPa SSE 4.7 km/h 10 km/h 55.9% 0.0 mm
09:39 7 °C -1 °C 1027.4 hPa SSE 5.6 km/h 9.7 km/h 56.8% 0.0 mm
09:44 6.9 °C -1 °C 1027.4 hPa Sur 5.8 km/h 8 km/h 57.3% 0.0 mm
09:49 7.1 °C -0.9 °C 1027.4 hPa SSO 5 km/h 9.3 km/h 56.9% 0.0 mm
09:54 7.4 °C -0.8 °C 1027.4 hPa SSO 5 km/h 10.3 km/h 56% 0.0 mm
09:59 7.8 °C -0.6 °C 1027.4 hPa Sur 5.7 km/h 11.3 km/h 55.6% 0.0 mm
10:04 8 °C -0.7 °C 1027.4 hPa SSO 5.8 km/h 11.3 km/h 54.4% 0.0 mm
10:09 8.2 °C -0.8 °C 1027.6 hPa Sur 5.8 km/h 9.7 km/h 53.2% 0.0 mm
10:14 8.4 °C -0.9 °C 1027.6 hPa Sur 5.8 km/h 10 km/h 51.7% 0.0 mm
10:19 8.7 °C -1.1 °C 1027.6 hPa SSO 6.3 km/h 11.9 km/h 50.2% 0.0 mm
10:24 8.8 °C -1.1 °C 1027.7 hPa Sur 6.5 km/h 11.3 km/h 50% 0.0 mm
10:29 8.9 °C -1 °C 1027.7 hPa Sur 6.9 km/h 11.3 km/h 49.8% 0.0 mm
10:34 9.1 °C -1.1 °C 1027.7 hPa Sur 6.9 km/h 11.9 km/h 49% 0.0 mm
10:39 9.1 °C -1.1 °C 1027.9 hPa SSO 7.5 km/h 11.3 km/h 49% 0.0 mm
10:44 9.2 °C -1 °C 1027.9 hPa SSO 7.6 km/h 11.3 km/h 49% 0.0 mm
10:49 9.3 °C -0.9 °C 1027.9 hPa SSO 6.5 km/h 9.7 km/h 49% 0.0 mm
10:54 9.4 °C -0.8 °C 1028.0 hPa SSO 6.5 km/h 8.7 km/h 49% 0.0 mm
10:59 9.6 °C -0.9 °C 1028.0 hPa Sur 4.9 km/h 10 km/h 48% 0.0 mm
11:04 9.7 °C -0.8 °C 1028.0 hPa SSO 4.6 km/h 9.7 km/h 48% 0.0 mm
11:09 9.9 °C -0.7 °C 1028.0 hPa SSO 5.6 km/h 8 km/h 47.8% 0.0 mm
11:14 10.1 °C -0.7 °C 1028.0 hPa Sur 5.8 km/h 9.5 km/h 47.1% 0.0 mm
11:19 10.3 °C -0.6 °C 1028.0 hPa SSO 5.8 km/h 9.7 km/h 46.7% 0.0 mm
11:24 10.4 °C -0.7 °C 1028.0 hPa SO 5.8 km/h 8 km/h 45.8% 0.0 mm
11:29 10.6 °C -0.8 °C 1028.0 hPa SSO 4.8 km/h 8 km/h 45% 0.0 mm
11:34 10.8 °C -0.7 °C 1028.0 hPa SSO 4.7 km/h 8.4 km/h 44.9% 0.0 mm
11:39 11.1 °C -0.8 °C 1028.0 hPa OSO 4.7 km/h 5.8 km/h 43.8% 0.0 mm
11:44 11.4 °C -0.8 °C 1027.8 hPa SSO 4.7 km/h 8.7 km/h 43.1% 0.0 mm
11:49 11.7 °C -0.6 °C 1027.8 hPa SO 4 km/h 9.7 km/h 42.8% 0.0 mm
11:54 11.9 °C -0.5 °C 1027.8 hPa SSO 3.9 km/h 9.7 km/h 42.3% 0.0 mm
11:59 12.2 °C -0.4 °C 1027.7 hPa SO 4.6 km/h 9.7 km/h 42% 0.0 mm
12:04 12.3 °C -0.5 °C 1027.7 hPa OSO 4.6 km/h 8.4 km/h 41.2% 0.0 mm
12:09 12.4 °C -0.4 °C 1027.7 hPa SSO 4.7 km/h 9.5 km/h 41.1% 0.0 mm
12:14 12.6 °C -0.3 °C 1027.6 hPa SSO 4.7 km/h 10 km/h 41% 0.0 mm
12:19 12.7 °C -0.3 °C 1027.6 hPa SSO 6.2 km/h 10 km/h 41% 0.0 mm
12:24 12.7 °C -0.2 °C 1027.6 hPa SSO 6.5 km/h 9.7 km/h 41% 0.0 mm
12:29 12.9 °C -0.2 °C 1027.4 hPa SSO 5.9 km/h 9.7 km/h 40.7% 0.0 mm
12:34 13.2 °C 0 °C 1027.4 hPa Sur 5.8 km/h 9.7 km/h 40.5% 0.0 mm
12:39 13.4 °C 0.2 °C 1027.4 hPa Sur 5.8 km/h 10.3 km/h 40.2% 0.0 mm
12:44 13.7 °C 0.3 °C 1027.1 hPa Sur 5.8 km/h 11.3 km/h 40% 0.0 mm
12:49 13.8 °C 0.2 °C 1027.1 hPa Sur 6.4 km/h 11.1 km/h 39.4% 0.0 mm
12:54 14 °C 0.2 °C 1027.1 hPa Sur 6.5 km/h 11.3 km/h 39% 0.0 mm
12:59 14.2 °C 0.4 °C 1026.8 hPa Sur 5.9 km/h 13 km/h 38.8% 0.0 mm
13:04 14.3 °C 0.3 °C 1026.8 hPa Sur 5.8 km/h 13 km/h 38.3% 0.0 mm
13:09 14.3 °C 0.4 °C 1026.8 hPa Sur 6.8 km/h 11.9 km/h 38.5% 0.0 mm
13:14 14.4 °C 0.6 °C 1026.6 hPa Sur 6.9 km/h 11.3 km/h 38.9% 0.0 mm
13:19 14.6 °C 0.7 °C 1026.6 hPa Sur 6.9 km/h 11.3 km/h 39% 0.0 mm
13:24 14.7 °C 0.9 °C 1026.6 hPa Sur 6.9 km/h 11.1 km/h 39% 0.0 mm
13:29 14.9 °C 1 °C 1026.2 hPa SSE 5.1 km/h 11.3 km/h 38.7% 0.0 mm
13:34 15.2 °C 0.9 °C 1026.2 hPa SSE 5 km/h 11.9 km/h 38% 0.0 mm
13:39 15.3 °C 1 °C 1026.2 hPa SSO 5 km/h 11.3 km/h 38% 0.0 mm
13:44 15.3 °C 1.1 °C 1026.1 hPa SO 5 km/h 11.3 km/h 38.2% 0.0 mm
13:49 15.2 °C 1.3 °C 1026.1 hPa OSO 5.7 km/h 11.3 km/h 39% 0.0 mm
13:54 15.4 °C 1.3 °C 1026.1 hPa Sur 5.8 km/h 7.6 km/h 38.3% 0.0 mm
13:59 15.7 °C 1.8 °C 1025.8 hPa SO 3.6 km/h 8.4 km/h 39% 0.0 mm
14:04 15.9 °C 1.7 °C 1025.8 hPa SSO 3.2 km/h 8.4 km/h 38% 0.0 mm
14:09 16.1 °C 1.8 °C 1025.8 hPa SSO 3.8 km/h 8 km/h 38% 0.0 mm
14:14 16.1 °C 2 °C 1025.6 hPa Sur 3.9 km/h 8.4 km/h 38.7% 0.0 mm
14:19 16.2 °C 2.1 °C 1025.6 hPa SSE 4.9 km/h 8 km/h 38.8% 0.0 mm
14:24 16.4 °C 2.2 °C 1025.6 hPa SSE 5 km/h 10 km/h 38.5% 0.0 mm
14:29 16.6 °C 2.4 °C 1025.5 hPa SE 3.9 km/h 9.7 km/h 38.6% 0.0 mm
14:34 16.6 °C 2.5 °C 1025.5 hPa ESE 3.9 km/h 9.5 km/h 38.9% 0.0 mm
14:39 16.6 °C 2.6 °C 1025.5 hPa Este 4.6 km/h 9.7 km/h 39.3% 0.0 mm
14:44 16.6 °C 2.8 °C 1025.2 hPa ENE 4.7 km/h 8.4 km/h 39.8% 0.0 mm
14:49 16.6 °C 2.9 °C 1025.2 hPa NNE 4.7 km/h 10 km/h 40% 0.0 mm
14:54 16.5 °C 2.9 °C 1025.2 hPa NNE 4.7 km/h 9.7 km/h 40.1% 0.0 mm
14:59 16.6 °C 2.9 °C 1025.1 hPa ENE 4.7 km/h 9.7 km/h 40% 0.0 mm
15:04 16.6 °C 2.9 °C 1025.1 hPa NNE 4.6 km/h 9.5 km/h 40% 0.0 mm
15:09 16.6 °C 2.9 °C 1025.1 hPa NE 4.9 km/h 9.7 km/h 40% 0.0 mm
15:14 16.7 °C 3 °C 1025.0 hPa North 5 km/h 9.7 km/h 40% 0.0 mm
15:19 16.7 °C 3 °C 1025.0 hPa NNE 4.7 km/h 8 km/h 40% 0.0 mm
15:24 16.8 °C 3.1 °C 1025.0 hPa NNE 4.7 km/h 8 km/h 40% 0.0 mm
15:29 16.9 °C 3.3 °C 1024.9 hPa ENE 3 km/h 9.3 km/h 40% 0.0 mm
15:34 17.1 °C 3.4 °C 1024.9 hPa ENE 2.9 km/h 9.7 km/h 40.1% 0.0 mm
15:39 17 °C 3.7 °C 1024.9 hPa ENE 4.5 km/h 9.3 km/h 41% 0.0 mm
15:44 16.9 °C 3.7 °C 1024.8 hPa NNE 4.7 km/h 11.1 km/h 41.3% 0.0 mm
15:49 16.9 °C 3.9 °C 1024.8 hPa North 5.6 km/h 14 km/h 42% 0.0 mm
15:54 16.9 °C 4 °C 1024.8 hPa NE 5.8 km/h 16.4 km/h 42.3% 0.0 mm
15:59 16.9 °C 4.1 °C 1024.7 hPa NE 8 km/h 16.7 km/h 42.5% 0.0 mm
16:04 17.1 °C 4.4 °C 1024.7 hPa NE 8.4 km/h 16.1 km/h 43% 0.0 mm
16:09 17.2 °C 4.6 °C 1024.7 hPa NE 7.6 km/h 17.2 km/h 43.6% 0.0 mm
16:14 17.1 °C 5.3 °C 1024.6 hPa NNE 7.6 km/h 17.7 km/h 45.9% 0.0 mm
16:19 16.9 °C 5.4 °C 1024.6 hPa NE 10.1 km/h 18.5 km/h 46.7% 0.0 mm
16:24 16.9 °C 5.6 °C 1024.6 hPa NE 10.3 km/h 19.3 km/h 47.2% 0.0 mm
16:29 16.9 °C 5.7 °C 1024.6 hPa NNE 10.3 km/h 16.7 km/h 47.7% 0.0 mm
16:34 16.9 °C 5.8 °C 1024.6 hPa NE 10.3 km/h 18.5 km/h 48% 0.0 mm
16:39 16.9 °C 5.8 °C 1024.6 hPa NNE 8.8 km/h 19.3 km/h 48% 0.0 mm
16:44 16.9 °C 5.8 °C 1024.6 hPa NE 8.7 km/h 20.4 km/h 47.9% 0.0 mm
16:49 16.8 °C 5.7 °C 1024.6 hPa NNE 10.9 km/h 20.9 km/h 48% 0.0 mm
16:54 16.7 °C 5.6 °C 1024.7 hPa NE 11.1 km/h 17.2 km/h 48% 0.0 mm
16:59 16.6 °C 5.6 °C 1024.7 hPa NE 11.1 km/h 19 km/h 48% 0.0 mm
17:04 16.6 °C 5.5 °C 1024.7 hPa NE 11.1 km/h 19.3 km/h 48% 0.0 mm
17:09 16.5 °C 5.5 °C 1024.7 hPa NE 11.1 km/h 17.7 km/h 48% 0.0 mm
17:14 16.5 °C 5.4 °C 1024.7 hPa NE 11.1 km/h 18 km/h 48% 0.0 mm
17:19 16.4 °C 5.3 °C 1024.7 hPa NE 9.7 km/h 20.4 km/h 48% 0.0 mm
17:24 16.3 °C 5.4 °C 1024.7 hPa NE 9.5 km/h 20.9 km/h 48.7% 0.0 mm
17:29 16.2 °C 5.4 °C 1024.7 hPa NE 9.5 km/h 14.5 km/h 49% 0.0 mm
17:34 16.1 °C 5.4 °C 1024.7 hPa NE 9.5 km/h 14.8 km/h 49% 0.0 mm
17:39 15.9 °C 5.2 °C 1024.9 hPa NE 8.5 km/h 15.6 km/h 49% 0.0 mm
17:44 15.8 °C 5.4 °C 1024.9 hPa NE 8.4 km/h 16.1 km/h 49.9% 0.0 mm
17:49 15.7 °C 5.3 °C 1024.9 hPa NE 7.7 km/h 13 km/h 50.1% 0.0 mm
17:54 15.6 °C 5.5 °C 1025.1 hPa NE 7.6 km/h 13 km/h 51% 0.0 mm
17:59 15.4 °C 5.5 °C 1025.1 hPa NE 7 km/h 13.7 km/h 51.5% 0.0 mm
18:04 15.2 °C 5.5 °C 1025.1 hPa NE 6.9 km/h 14.5 km/h 52.2% 0.0 mm
18:09 15.1 °C 5.6 °C 1025.3 hPa NE 6.9 km/h 13 km/h 53% 0.0 mm
18:14 14.9 °C 5.6 °C 1025.3 hPa NE 6.9 km/h 12.9 km/h 53.7% 0.0 mm
18:19 14.8 °C 5.6 °C 1025.3 hPa NNE 6.9 km/h 9.7 km/h 54.1% 0.0 mm
18:24 14.7 °C 5.7 °C 1025.4 hPa ENE 6.9 km/h 9.7 km/h 55% 0.0 mm
18:29 14.5 °C 5.7 °C 1025.4 hPa ENE 5.3 km/h 10 km/h 55.4% 0.0 mm
18:34 14.4 °C 5.7 °C 1025.4 hPa ENE 5 km/h 9.7 km/h 56% 0.0 mm
18:39 14.2 °C 5.7 °C 1025.5 hPa ENE 4.7 km/h 8 km/h 56.8% 0.0 mm
18:44 14.1 °C 5.8 °C 1025.5 hPa ENE 4.7 km/h 8 km/h 57.2% 0.0 mm
18:49 14.1 °C 5.9 °C 1025.5 hPa ENE 4.9 km/h 11.9 km/h 58% 0.0 mm
18:54 14.1 °C 5.9 °C 1025.6 hPa ENE 5 km/h 11.3 km/h 58% 0.0 mm
18:59 13.9 °C 5.9 °C 1025.6 hPa Este 4.7 km/h 11.1 km/h 58.6% 0.0 mm
19:04 13.9 °C 6.1 °C 1025.6 hPa Este 4.6 km/h 11.3 km/h 59.4% 0.0 mm
19:09 13.8 °C 6.2 °C 1025.6 hPa Este 6.2 km/h 11.3 km/h 60.2% 0.0 mm
19:14 13.7 °C 6.3 °C 1025.6 hPa NE 6.5 km/h 11.3 km/h 61% 0.0 mm
19:19 13.5 °C 6.1 °C 1025.6 hPa NNE 5.9 km/h 11.3 km/h 61% 0.0 mm
19:24 13.3 °C 6.1 °C 1025.8 hPa NNE 5.8 km/h 8.4 km/h 61.8% 0.0 mm
19:29 13.1 °C 6.3 °C 1025.8 hPa North 5 km/h 11.1 km/h 63.4% 0.0 mm
19:34 12.8 °C 6.2 °C 1025.8 hPa NNE 5 km/h 11.3 km/h 64.2% 0.0 mm
19:39 12.7 °C 6.4 °C 1025.9 hPa North 5.7 km/h 13 km/h 65.5% 0.0 mm
19:44 12.5 °C 6.4 °C 1025.9 hPa NNE 5.8 km/h 12.9 km/h 66.3% 0.0 mm
19:49 12.4 °C 6.5 °C 1025.9 hPa NNE 8.2 km/h 11.3 km/h 67.5% 0.0 mm
19:54 12.3 °C 6.6 °C 1026.0 hPa NNE 8.4 km/h 11.3 km/h 68% 0.0 mm
19:59 12.3 °C 6.7 °C 1026.0 hPa NNE 8.4 km/h 13.7 km/h 68.8% 0.0 mm
20:04 12.2 °C 6.8 °C 1026.0 hPa NNE 8.4 km/h 14.5 km/h 69.6% 0.0 mm
20:09 12.1 °C 6.8 °C 1026.2 hPa North 8.7 km/h 14.5 km/h 70.1% 0.0 mm
20:14 11.9 °C 6.8 °C 1026.2 hPa NNE 8.7 km/h 13 km/h 71% 0.0 mm
20:19 11.7 °C 6.8 °C 1026.2 hPa North 8.7 km/h 12.9 km/h 71.7% 0.0 mm
20:24 11.5 °C 6.8 °C 1026.4 hPa North 8.7 km/h 11.3 km/h 72.7% 0.0 mm
20:29 11.3 °C 6.7 °C 1026.4 hPa NO 6.2 km/h 8 km/h 73% 0.0 mm
20:34 11.2 °C 6.7 °C 1026.4 hPa North 5.8 km/h 9.5 km/h 73.8% 0.0 mm
20:39 11.1 °C 6.8 °C 1026.6 hPa North 4.7 km/h 9.7 km/h 75% 0.0 mm
20:44 10.9 °C 6.7 °C 1026.6 hPa NNO 4.7 km/h 8 km/h 75% 0.0 mm
20:49 10.8 °C 6.7 °C 1026.6 hPa NNO 3.3 km/h 8 km/h 75.6% 0.0 mm
20:54 10.8 °C 6.7 °C 1026.6 hPa NNO 3.2 km/h 6.4 km/h 76% 0.0 mm
20:59 10.7 °C 6.8 °C 1026.6 hPa NNO 2.9 km/h 4.8 km/h 76.8% 0.0 mm
21:04 10.6 °C 6.8 °C 1026.6 hPa NNO 2.9 km/h 7.4 km/h 77.1% 0.0 mm
21:09 10.6 °C 6.9 °C 1026.7 hPa NNO 2.9 km/h 8 km/h 78% 0.0 mm
21:14 10.4 °C 6.8 °C 1026.7 hPa NNO 2.9 km/h 8 km/h 78% 0.0 mm
21:19 10.3 °C 6.9 °C 1026.7 hPa North 3.2 km/h 8 km/h 79% 0.0 mm
21:24 10.3 °C 6.9 °C 1026.7 hPa North 3.2 km/h 8 km/h 79.6% 0.0 mm
21:29 10.2 °C 6.9 °C 1026.6 hPa North 3.2 km/h 6.4 km/h 80% 0.0 mm
21:34 10.2 °C 7 °C 1026.6 hPa NNE 3.2 km/h 8 km/h 80.9% 0.0 mm
21:39 10.1 °C 7 °C 1026.6 hPa NE 3.8 km/h 8 km/h 81% 0.0 mm
21:44 10.1 °C 7 °C 1026.6 hPa NE 3.9 km/h 5.8 km/h 81% 0.0 mm
21:49 10 °C 6.8 °C 1026.6 hPa NE 3.3 km/h 6.4 km/h 81% 0.0 mm
21:54 9.9 °C 6.8 °C 1026.7 hPa NE 3.2 km/h 6.4 km/h 81% 0.0 mm
21:59 9.8 °C 6.7 °C 1026.7 hPa NE 2.9 km/h 4.8 km/h 81% 0.0 mm
22:04 9.8 °C 6.6 °C 1026.7 hPa NE 2.9 km/h 4.7 km/h 81% 0.0 mm
22:09 9.7 °C 6.6 °C 1026.8 hPa NE 2.3 km/h 4.8 km/h 81% 0.0 mm
22:14 9.7 °C 6.6 °C 1026.8 hPa NE 2.3 km/h 3.7 km/h 81% 0.0 mm
22:19 9.7 °C 6.6 °C 1026.8 hPa NE 0.2 km/h 3.2 km/h 81% 0.0 mm
22:24 9.6 °C 6.5 °C 1026.8 hPa Calm   5.6 km/h 81% 0.0 mm
22:29 9.5 °C 6.4 °C 1026.8 hPa Calm   4.8 km/h 81% 0.0 mm
22:34 9.4 °C 6.3 °C 1026.8 hPa Calm   4.8 km/h 81.2% 0.0 mm
22:39 9.4 °C 6.5 °C 1026.9 hPa Calm   5.6 km/h 82% 0.0 mm
22:44 9.3 °C 6.4 °C 1026.9 hPa Calm   6.4 km/h 82% 0.0 mm
22:49 9.2 °C 6.3 °C 1026.9 hPa Calm   4.7 km/h 82% 0.0 mm
22:54 9.1 °C 6.2 °C 1026.9 hPa Calm   4.8 km/h 82% 0.0 mm
22:59 9 °C 6.1 °C 1026.9 hPa NE 1.9 km/h 4.7 km/h 82% 0.0 mm
23:04 8.9 °C 6 °C 1026.9 hPa NE 2.2 km/h 4.8 km/h 82% 0.0 mm
23:09 8.9 °C 6.1 °C 1027.0 hPa NE 2.2 km/h 3.2 km/h 82.6% 0.0 mm
23:14 8.8 °C 6.1 °C 1027.0 hPa NE 2.2 km/h   83% 0.0 mm
23:19 8.8 °C 6 °C 1027.0 hPa NE 0.2 km/h   83% 0.0 mm
23:24 8.8 °C 6.1 °C 1027.1 hPa Calm     83% 0.0 mm
23:29 8.8 °C 6.1 °C 1027.1 hPa Calm     83% 0.0 mm
23:34 8.8 °C 6.1 °C 1027.1 hPa Calm   2.9 km/h 83% 0.0 mm
23:39 8.8 °C 6.1 °C 1027.2 hPa Calm   5.8 km/h 83% 0.0 mm
23:44 8.9 °C 6.2 °C 1027.2 hPa Calm   6.4 km/h 83% 0.0 mm
23:49 8.9 °C 6.1 °C 1027.2 hPa NE 2.5 km/h 4.8 km/h 82.8% 0.0 mm
23:54 8.9 °C 6.1 °C 1027.2 hPa ENE 2.9 km/h 7.4 km/h 82.3% 0.0 mm
23:59 8.9 °C 6 °C 1027.1 hPa Sur 3.2 km/h 8 km/h 82% 0.0 mm
Murcia-Puente Tocinos, Espa?a
Compliments of Weather Underground - 3 mb

La estación de MeteoMurcia.com, publica sus datos en los siguientes proyectos:

Weather Underground PWS IMURCIAP2 Meteoclimatic www.awekas.at

W3Counter
Web Analytics